createdAt,value
2019-04-04T00:02:25.833Z,58.70
2019-04-04T00:04:53.191Z,58.80
2019-04-04T00:07:19.500Z,58.60
2019-04-04T00:09:46.387Z,58.30
2019-04-04T00:12:12.709Z,58.40
2019-04-04T00:14:38.996Z,58.40
2019-04-04T00:17:05.393Z,58.40
2019-04-04T00:19:31.815Z,58.50
2019-04-04T00:21:58.327Z,58.20
2019-04-04T00:24:24.625Z,58.70
2019-04-04T00:26:52.405Z,58.00
2019-04-04T00:29:18.851Z,57.90
2019-04-04T00:31:45.318Z,58.10
2019-04-04T00:34:13.688Z,58.10
2019-04-04T00:36:40.631Z,57.90
2019-04-04T00:39:09.103Z,57.80
2019-04-04T00:41:35.731Z,57.90
2019-04-04T00:44:02.156Z,57.90
2019-04-04T00:46:29.012Z,58.00
2019-04-04T00:48:57.449Z,58.40
2019-04-04T00:51:23.915Z,58.70
2019-04-04T00:53:50.355Z,58.80
2019-04-04T00:56:18.804Z,58.60
2019-04-04T00:58:45.287Z,58.60
2019-04-04T01:01:11.819Z,58.30
2019-04-04T01:03:38.332Z,58.20
2019-04-04T01:06:04.695Z,58.10
2019-04-04T01:08:31.114Z,58.50
2019-04-04T01:10:58.461Z,58.80
2019-04-04T01:13:27.551Z,58.70
2019-04-04T01:15:53.054Z,58.80
2019-04-04T01:18:19.574Z,58.80
2019-04-04T01:20:45.910Z,59.30
2019-04-04T01:26:08.458Z,59.50
2019-04-04T01:28:37.181Z,59.40
2019-04-04T01:31:03.779Z,59.70
2019-04-04T01:33:30.109Z,59.70
2019-04-04T01:35:56.458Z,59.80
2019-04-04T01:38:22.755Z,60.00
2019-04-04T01:40:49.083Z,60.20
2019-04-04T01:43:16.940Z,60.60
2019-04-04T01:45:44.090Z,60.60
2019-04-04T01:48:12.398Z,60.70
2019-04-04T01:50:39.085Z,60.90
2019-04-04T01:53:06.127Z,60.80
2019-04-04T01:55:32.990Z,61.80
2019-04-04T01:58:00.940Z,62.80
2019-04-04T02:03:23.389Z,64.10
2019-04-04T02:05:49.780Z,64.10
2019-04-04T02:08:16.174Z,64.30
2019-04-04T02:10:43.230Z,64.30
2019-04-04T02:13:10.412Z,63.60
2019-04-04T02:15:38.068Z,63.30
2019-04-04T02:18:04.501Z,63.30
2019-04-04T02:20:32.093Z,63.30
2019-04-04T02:23:01.201Z,63.00
2019-04-04T02:25:26.698Z,63.30
2019-04-04T02:27:54.788Z,63.50
2019-04-04T02:30:21.302Z,63.30
2019-04-04T02:32:47.861Z,62.80
2019-04-04T02:35:17.065Z,62.00
2019-04-04T02:37:43.457Z,61.80
2019-04-04T02:40:10.070Z,61.60
2019-04-04T02:42:37.331Z,61.50
2019-04-04T02:45:05.647Z,61.30
2019-04-04T02:47:34.155Z,61.60
2019-04-04T02:50:01.408Z,62.10
2019-04-04T02:52:28.552Z,62.40
2019-04-04T02:54:58.287Z,63.20
2019-04-04T02:57:23.199Z,63.40
2019-04-04T02:59:52.790Z,64.50
2019-04-04T03:02:17.945Z,63.90
2019-04-04T03:04:46.896Z,64.00
2019-04-04T03:07:13.057Z,64.60
2019-04-04T03:09:43.374Z,64.50
2019-04-04T03:12:09.140Z,64.40
2019-04-04T03:14:37.335Z,64.70
2019-04-04T03:17:03.770Z,65.50
2019-04-04T03:19:30.125Z,65.70
2019-04-04T03:21:56.537Z,65.20
2019-04-04T03:24:23.179Z,65.40
2019-04-04T03:26:52.187Z,64.50
2019-04-04T03:29:19.658Z,64.30
2019-04-04T03:31:46.670Z,64.20
2019-04-04T03:34:13.370Z,64.50
2019-04-04T03:36:40.010Z,65.20
2019-04-04T03:39:06.513Z,65.20
2019-04-04T03:41:36.022Z,65.40
2019-04-04T03:44:01.406Z,65.30
2019-04-04T03:46:27.834Z,65.50
2019-04-04T03:48:54.254Z,65.60
2019-04-04T03:51:20.633Z,65.70
2019-04-04T03:53:50.713Z,65.40
2019-04-04T03:56:17.111Z,64.80
2019-04-04T03:58:43.429Z,65.10
2019-04-04T04:01:13.027Z,65.20
2019-04-04T04:03:39.474Z,65.40
2019-04-04T04:06:08.727Z,65.40
2019-04-04T04:08:34.267Z,65.60
2019-04-04T04:11:04.710Z,65.90
2019-04-04T04:13:28.967Z,65.40
2019-04-04T04:15:56.901Z,65.70
2019-04-04T04:18:23.210Z,66.10
2019-04-04T04:20:49.597Z,67.00
2019-04-04T04:23:17.121Z,67.40
2019-04-04T04:25:44.914Z,68.00
2019-04-04T04:28:11.531Z,68.40
2019-04-04T04:30:40.452Z,68.10
2019-04-04T04:33:07.191Z,68.30
2019-04-04T04:35:33.592Z,68.30
2019-04-04T04:38:01.093Z,68.20
2019-04-04T04:40:27.614Z,68.20
2019-04-04T04:42:53.991Z,67.90
2019-04-04T04:45:20.322Z,67.40
2019-04-04T04:47:46.698Z,66.80
2019-04-04T04:50:13.220Z,66.80
2019-04-04T04:52:39.755Z,67.00
2019-04-04T04:55:06.136Z,67.30
2019-04-04T04:57:34.385Z,67.40
2019-04-04T05:00:03.537Z,67.80
2019-04-04T05:02:30.043Z,67.90
2019-04-04T05:04:57.269Z,67.20
2019-04-04T05:07:24.775Z,66.90
2019-04-04T05:09:51.073Z,66.70
2019-04-04T05:12:17.826Z,67.20
2019-04-04T05:14:44.261Z,67.40
2019-04-04T05:17:10.695Z,67.60
2019-04-04T05:19:37.085Z,67.80
2019-04-04T05:22:04.793Z,69.20
2019-04-04T05:24:31.193Z,69.50
2019-04-04T05:26:57.604Z,69.60
2019-04-04T05:29:24.078Z,70.30
2019-04-04T05:31:51.037Z,70.60
2019-04-04T05:34:17.427Z,70.60
2019-04-04T05:36:43.887Z,70.50
2019-04-04T05:39:10.384Z,70.70
2019-04-04T05:41:37.435Z,70.90
2019-04-04T05:44:04.452Z,71.30
2019-04-04T05:46:30.939Z,71.40
2019-04-04T05:48:57.659Z,71.00
2019-04-04T05:51:25.726Z,71.20
2019-04-04T05:53:52.118Z,71.10
2019-04-04T05:56:18.500Z,71.10
2019-04-04T05:58:44.948Z,71.30
2019-04-04T06:01:13.268Z,70.90
2019-04-04T06:03:39.629Z,69.80
2019-04-04T06:06:10.386Z,69.40
2019-04-04T06:08:38.816Z,69.30
2019-04-04T06:11:05.501Z,69.60
2019-04-04T06:13:31.777Z,69.70
2019-04-04T06:15:58.313Z,69.70
2019-04-04T06:18:24.734Z,69.50
2019-04-04T06:20:51.035Z,69.50
2019-04-04T06:23:20.423Z,69.50
2019-04-04T06:25:45.885Z,69.30
2019-04-04T06:28:12.683Z,69.20
2019-04-04T06:30:43.495Z,69.00
2019-04-04T06:33:08.793Z,68.60
2019-04-04T06:35:35.123Z,68.50
2019-04-04T06:38:01.615Z,68.30
2019-04-04T06:40:30.210Z,67.90
2019-04-04T06:42:58.407Z,67.80
2019-04-04T06:45:24.841Z,67.60
2019-04-04T06:47:51.382Z,67.20
2019-04-04T06:50:17.773Z,67.10
2019-04-04T06:52:44.090Z,67.20
2019-04-04T06:55:10.444Z,66.80
2019-04-04T06:57:37.545Z,66.80
2019-04-04T07:00:07.705Z,66.50
2019-04-04T07:02:34.295Z,66.30
2019-04-04T07:05:00.599Z,65.80
2019-04-04T07:07:26.901Z,65.40
2019-04-04T07:09:53.367Z,65.10
2019-04-04T07:12:24.220Z,64.70
2019-04-04T07:14:49.507Z,64.80
2019-04-04T07:17:16.395Z,64.70
2019-04-04T07:19:46.000Z,64.70
2019-04-04T07:22:11.349Z,64.80
2019-04-04T07:24:37.905Z,65.20
2019-04-04T07:27:04.200Z,64.40
2019-04-04T07:29:30.589Z,64.10
2019-04-04T07:31:57.015Z,63.30
2019-04-04T07:34:25.445Z,63.20
2019-04-04T07:36:51.988Z,63.30
2019-04-04T07:39:18.402Z,64.10
2019-04-04T07:41:45.159Z,63.00
2019-04-04T07:50:58.527Z,61.30
2019-04-04T07:53:28.176Z,62.80
2019-04-04T07:55:54.267Z,63.60
2019-04-04T07:58:20.931Z,65.00
2019-04-04T08:00:47.302Z,64.60
2019-04-04T08:03:14.609Z,63.90
2019-04-04T08:07:52.586Z,63.50
2019-04-04T08:10:20.887Z,63.20
2019-04-04T08:13:52.432Z,63.00
2019-04-04T08:16:18.942Z,62.90
2019-04-04T08:18:45.359Z,62.90
2019-04-04T08:21:11.796Z,62.20
2019-04-04T08:23:39.206Z,61.90
2019-04-04T08:26:06.378Z,62.00
2019-04-04T08:28:33.555Z,62.10
2019-04-04T08:31:01.924Z,61.40
2019-04-04T08:33:28.559Z,61.00
2019-04-04T08:36:05.303Z,61.00
2019-04-04T08:38:23.836Z,60.20
2019-04-04T08:40:50.283Z,60.60
2019-04-04T08:43:16.840Z,60.10
2019-04-04T08:45:43.336Z,59.80
2019-04-04T08:48:09.771Z,59.30
2019-04-04T08:50:38.179Z,59.10
2019-04-04T08:53:05.863Z,59.70
2019-04-04T08:55:33.090Z,59.40
2019-04-04T08:57:59.522Z,59.10
2019-04-04T09:00:25.939Z,59.50
2019-04-04T09:02:52.350Z,59.00
2019-04-04T09:05:18.795Z,59.10
2019-04-04T09:07:45.092Z,59.60
2019-04-04T09:10:13.330Z,59.40
2019-04-04T09:12:39.847Z,59.70
2019-04-04T09:15:06.359Z,60.30
2019-04-04T09:17:32.671Z,59.90
2019-04-04T09:19:59.219Z,59.50
2019-04-04T09:22:26.732Z,59.30
2019-04-04T09:24:53.275Z,59.70
2019-04-04T09:27:19.678Z,59.20
2019-04-04T09:29:46.058Z,58.80
2019-04-04T09:32:12.399Z,58.90
2019-04-04T09:34:40.116Z,59.10
2019-04-04T09:37:08.871Z,58.80
2019-04-04T09:39:34.878Z,58.80
2019-04-04T09:42:01.321Z,58.60
2019-04-04T09:44:27.696Z,59.20
2019-04-04T09:47:04.910Z,58.60
2019-04-04T09:49:25.500Z,59.10
2019-04-04T09:51:52.191Z,59.00
2019-04-04T09:54:21.218Z,58.50
2019-04-04T09:56:49.155Z,58.60
2019-04-04T09:59:15.599Z,58.40
2019-04-04T10:01:42.996Z,58.10
2019-04-04T10:04:09.321Z,58.00
2019-04-04T10:06:35.828Z,58.10
2019-04-04T10:09:15.606Z,58.30
2019-04-04T10:11:33.976Z,58.00
2019-04-04T10:14:00.436Z,58.10
2019-04-04T10:16:26.854Z,57.60
2019-04-04T10:18:54.201Z,57.90
2019-04-04T10:21:20.649Z,57.60
2019-04-04T10:23:47.667Z,57.40
2019-04-04T10:26:14.861Z,57.30
2019-04-04T10:28:41.504Z,57.40
2019-04-04T10:31:09.116Z,56.40
2019-04-04T10:33:35.548Z,56.50
2019-04-04T10:36:02.028Z,56.20
2019-04-04T10:38:28.483Z,55.40
2019-04-04T10:40:55.828Z,54.90
2019-04-04T10:43:23.313Z,55.10
2019-04-04T10:45:49.602Z,54.60
2019-04-04T10:48:15.933Z,54.90
2019-04-04T10:50:42.233Z,54.20
2019-04-04T10:53:08.709Z,54.50
2019-04-04T10:55:36.696Z,54.80
2019-04-04T10:58:03.217Z,54.20
2019-04-04T11:00:29.651Z,54.10
2019-04-04T11:02:56.700Z,53.70
2019-04-04T11:05:23.131Z,53.40
2019-04-04T11:07:49.532Z,53.20
2019-04-04T11:10:17.582Z,54.70
2019-04-04T11:12:43.937Z,56.10
2019-04-04T11:15:12.026Z,54.60
2019-04-04T11:17:38.434Z,53.50
2019-04-04T11:20:06.809Z,53.60
2019-04-04T11:22:33.143Z,53.10
2019-04-04T11:24:59.748Z,53.20
2019-04-04T11:27:26.298Z,53.70
2019-04-04T11:29:52.687Z,56.10
2019-04-04T11:32:19.180Z,55.60
2019-04-04T11:34:53.081Z,54.40
2019-04-04T11:37:13.880Z,52.10
2019-04-04T11:39:40.297Z,52.20
2019-04-04T11:42:08.629Z,52.50
2019-04-04T11:44:35.176Z,52.90
2019-04-04T11:47:06.059Z,52.00
2019-04-04T11:49:32.409Z,51.30
2019-04-04T11:51:59.918Z,52.40
2019-04-04T11:54:26.405Z,52.00
2019-04-04T11:56:53.437Z,51.70
2019-04-04T11:59:19.784Z,50.60
2019-04-04T12:01:48.140Z,51.20
2019-04-04T12:04:14.560Z,51.50
2019-04-04T12:06:41.050Z,50.70
2019-04-04T12:09:08.820Z,50.60
2019-04-04T12:11:35.369Z,50.20
2019-04-04T12:14:03.067Z,49.90
2019-04-04T12:16:32.517Z,49.70
2019-04-04T12:19:00.838Z,49.70
2019-04-04T12:21:27.329Z,49.60
2019-04-04T12:23:54.928Z,49.70
2019-04-04T12:26:21.320Z,49.80
2019-04-04T12:28:47.622Z,50.10
2019-04-04T12:31:14.144Z,50.30
2019-04-04T12:33:40.589Z,50.10
2019-04-04T12:36:07.122Z,50.60
2019-04-04T12:38:33.773Z,50.10
2019-04-04T12:41:00.207Z,50.00
2019-04-04T12:43:26.745Z,50.40
2019-04-04T12:45:53.223Z,50.40
2019-04-04T12:48:19.620Z,50.80
2019-04-04T12:50:48.499Z,51.20
2019-04-04T12:53:15.394Z,51.30
2019-04-04T12:55:43.703Z,51.80
2019-04-04T12:58:11.483Z,52.00
2019-04-04T13:00:38.068Z,51.40
2019-04-04T13:03:04.484Z,51.80
2019-04-04T13:05:30.883Z,52.10
2019-04-04T13:07:57.350Z,52.10
2019-04-04T13:10:32.806Z,51.50
2019-04-04T13:12:52.220Z,52.10
2019-04-04T13:15:20.929Z,52.60
2019-04-04T13:17:47.459Z,53.10
2019-04-04T13:20:13.998Z,53.50
2019-04-04T13:22:40.456Z,53.80
2019-04-04T13:25:07.956Z,54.00
2019-04-04T13:27:34.397Z,53.80
2019-04-04T13:30:00.933Z,54.20
2019-04-04T13:32:27.272Z,55.20
2019-04-04T13:34:59.259Z,54.80
2019-04-04T13:37:22.880Z,54.40
2019-04-04T13:39:49.316Z,54.40
2019-04-04T13:42:15.828Z,54.30
2019-04-04T13:44:44.847Z,54.40
2019-04-04T13:47:10.535Z,54.30
2019-04-04T13:49:36.933Z,54.80
2019-04-04T13:52:03.641Z,55.70
2019-04-04T13:54:30.121Z,56.50
2019-04-04T13:56:56.551Z,56.90
2019-04-04T13:59:24.908Z,57.90
2019-04-04T14:01:51.235Z,58.80
2019-04-04T14:04:20.192Z,59.10
2019-04-04T14:06:46.048Z,59.50
2019-04-04T14:09:13.048Z,60.20
2019-04-04T14:11:41.251Z,61.00
2019-04-04T14:14:07.997Z,61.50
2019-04-04T14:16:34.419Z,61.50
2019-04-04T14:19:00.958Z,62.40
2019-04-04T14:21:28.707Z,62.80
2019-04-04T14:23:56.861Z,63.10
2019-04-04T14:26:23.383Z,63.40
2019-04-04T14:28:49.972Z,63.60
2019-04-04T14:31:16.405Z,63.10
2019-04-04T14:33:43.245Z,63.20
2019-04-04T14:36:09.654Z,63.30
2019-04-04T14:38:36.092Z,63.70
2019-04-04T14:41:10.963Z,64.20
2019-04-04T14:43:31.345Z,64.30
2019-04-04T14:45:58.126Z,64.70
2019-04-04T14:48:24.656Z,65.00
2019-04-04T14:50:51.108Z,64.80
2019-04-04T14:53:17.508Z,64.50
2019-04-04T14:55:45.163Z,68.10
2019-04-04T14:58:11.619Z,69.10
2019-04-04T15:00:39.962Z,70.70
2019-04-04T15:03:06.402Z,71.30
2019-04-04T15:05:34.933Z,72.20
2019-04-04T15:08:01.361Z,74.80
2019-04-04T15:10:28.884Z,75.60
2019-04-04T15:12:55.450Z,76.10
2019-04-04T15:15:21.974Z,76.80
2019-04-04T15:17:48.614Z,77.30
2019-04-04T15:20:16.955Z,77.50
2019-04-04T15:22:43.386Z,77.30
2019-04-04T15:25:09.831Z,77.00
2019-04-04T15:27:36.412Z,77.40
2019-04-04T15:30:05.139Z,77.70
2019-04-04T15:32:31.586Z,78.00
2019-04-04T15:34:58.212Z,79.00
2019-04-04T15:37:24.522Z,78.50
2019-04-04T15:39:51.059Z,78.30
2019-04-04T15:42:17.576Z,78.90
2019-04-04T15:44:45.221Z,78.50
2019-04-04T15:47:11.686Z,78.50
2019-04-04T15:49:39.300Z,79.00
2019-04-04T15:52:05.857Z,79.50
2019-04-04T15:54:32.252Z,80.00
2019-04-04T15:56:58.764Z,79.90
2019-04-04T15:59:25.130Z,80.00
2019-04-04T16:01:53.618Z,79.70
2019-04-04T16:04:20.119Z,80.30
2019-04-04T16:06:46.543Z,80.20
2019-04-04T16:09:14.061Z,80.40
2019-04-04T16:11:49.378Z,80.80
2019-04-04T16:14:09.893Z,81.00
2019-04-04T16:16:36.484Z,81.10
2019-04-04T16:19:02.935Z,81.70
2019-04-04T16:21:29.574Z,81.00
2019-04-04T16:23:56.205Z,80.30
2019-04-04T16:26:22.894Z,81.30
2019-04-04T16:28:49.531Z,80.20
2019-04-04T16:31:15.992Z,79.90
2019-04-04T16:33:42.654Z,79.70
2019-04-04T16:36:09.169Z,79.10
2019-04-04T16:38:35.653Z,79.00
2019-04-04T16:41:02.274Z,78.90
2019-04-04T16:43:28.793Z,78.80
2019-04-04T16:45:58.553Z,80.30
2019-04-04T16:48:25.099Z,79.80
2019-04-04T16:50:51.782Z,79.80
2019-04-04T16:53:18.390Z,79.40
2019-04-04T16:55:46.557Z,79.50
2019-04-04T16:58:13.185Z,79.00
2019-04-04T17:00:39.781Z,79.10
2019-04-04T17:03:07.889Z,80.20
2019-04-04T17:05:34.565Z,81.00
2019-04-04T17:08:01.086Z,81.30
2019-04-04T17:10:28.247Z,81.10
2019-04-04T17:12:55.062Z,81.30
2019-04-04T17:15:21.631Z,81.10
2019-04-04T17:17:48.510Z,80.30
2019-04-04T17:20:15.048Z,80.20
2019-04-04T17:22:42.229Z,79.80
2019-04-04T17:25:09.035Z,80.00
2019-04-04T17:27:37.710Z,80.20
2019-04-04T17:30:06.058Z,79.40
2019-04-04T17:32:32.896Z,80.00
2019-04-04T17:34:59.407Z,79.70
2019-04-04T17:37:25.945Z,79.50
2019-04-04T17:39:53.356Z,79.80
2019-04-04T17:42:28.962Z,80.00
2019-04-04T17:44:48.443Z,80.40
2019-04-04T17:47:15.093Z,80.30
2019-04-04T17:49:42.006Z,79.20
2019-04-04T17:52:09.094Z,79.50
2019-04-04T17:54:36.095Z,79.90
2019-04-04T17:57:02.940Z,80.10
2019-04-04T17:59:30.451Z,80.30
2019-04-04T18:01:57.227Z,79.80
2019-04-04T18:04:25.312Z,80.00
2019-04-04T18:06:51.837Z,80.00
2019-04-04T18:09:30.938Z,79.20
2019-04-04T18:11:46.933Z,79.20
2019-04-04T18:14:13.506Z,79.30
2019-04-04T18:16:40.142Z,78.30
2019-04-04T18:19:06.767Z,78.40
2019-04-04T18:21:33.215Z,78.40
2019-04-04T18:24:00.245Z,78.90
2019-04-04T18:26:26.775Z,79.30
2019-04-04T18:28:53.344Z,79.30
2019-04-04T18:31:21.181Z,78.90
2019-04-04T18:33:49.456Z,78.90
2019-04-04T18:36:16.157Z,78.60
2019-04-04T18:38:42.647Z,78.40
2019-04-04T18:41:09.154Z,77.30
2019-04-04T18:43:35.731Z,77.10
2019-04-04T18:46:02.279Z,77.00
2019-04-04T18:48:28.803Z,77.70
2019-04-04T18:50:55.356Z,78.10
2019-04-04T18:53:22.092Z,78.10
2019-04-04T18:55:48.624Z,77.00
2019-04-04T18:58:15.155Z,77.20
2019-04-04T19:00:43.610Z,76.10
2019-04-04T19:03:10.072Z,76.50
2019-04-04T19:05:37.828Z,77.00
2019-04-04T19:08:04.484Z,77.10
2019-04-04T19:10:30.998Z,77.60
2019-04-04T19:13:05.245Z,77.70
2019-04-04T19:15:25.662Z,77.20
2019-04-04T19:17:52.102Z,76.80
2019-04-04T19:20:18.529Z,76.40
2019-04-04T19:22:45.015Z,76.60
2019-04-04T19:25:13.797Z,76.60
2019-04-04T19:27:39.786Z,76.60
2019-04-04T19:30:07.107Z,77.60
2019-04-04T19:32:33.714Z,78.10
2019-04-04T19:35:00.078Z,77.90
2019-04-04T19:37:26.428Z,78.00
2019-04-04T19:39:54.325Z,78.40
2019-04-04T19:42:21.118Z,78.80
2019-04-04T19:44:53.410Z,78.90
2019-04-04T19:47:16.689Z,79.40
2019-04-04T19:49:43.038Z,79.30
2019-04-04T19:52:10.597Z,78.20
2019-04-04T19:54:37.089Z,78.10
2019-04-04T19:57:03.503Z,78.20
2019-04-04T19:59:29.954Z,78.40
2019-04-04T20:01:56.370Z,78.80
2019-04-04T20:04:22.980Z,79.60
2019-04-04T20:06:50.268Z,80.20
2019-04-04T20:09:16.671Z,80.70
2019-04-04T20:11:43.130Z,80.20
2019-04-04T20:14:10.542Z,80.10
2019-04-04T20:16:38.532Z,79.10
2019-04-04T20:19:05.049Z,79.10
2019-04-04T20:21:32.773Z,78.80
2019-04-04T20:23:59.221Z,79.60
2019-04-04T20:26:27.437Z,80.20
2019-04-04T20:28:53.927Z,80.40
2019-04-04T20:31:23.524Z,80.20
